sensor_id;sensor_type;location;lat;lon;timestamp;temperature;humidity
20712;DHT22;10517;50.742;4.224;2023-03-20T00:00:16;5.40;99.90
20712;DHT22;10517;50.742;4.224;2023-03-20T00:02:42;5.30;99.90
20712;DHT22;10517;50.742;4.224;2023-03-20T00:05:16;5.40;99.90
20712;DHT22;10517;50.742;4.224;2023-03-20T00:07:43;5.20;99.90
20712;DHT22;10517;50.742;4.224;2023-03-20T00:10:09;5.30;99.90
20712;DHT22;10517;50.742;4.224;2023-03-20T00:12:35;5.40;99.90
20712;DHT22;10517;50.742;4.224;2023-03-20T00:15:02;5.50;99.90
20712;DHT22;10517;50.742;4.224;2023-03-20T00:17:29;5.70;99.90
20712;DHT22;10517;50.742;4.224;2023-03-20T00:19:55;5.80;99.90
20712;DHT22;10517;50.742;4.224;2023-03-20T00:22:20;5.90;99.90
20712;DHT22;10517;50.742;4.224;2023-03-20T00:24:47;6.00;99.90
20712;DHT22;10517;50.742;4.224;2023-03-20T00:27:14;6.20;99.90
20712;DHT22;10517;50.742;4.224;2023-03-20T00:29:40;6.30;99.90
20712;DHT22;10517;50.742;4.224;2023-03-20T00:32:10;6.40;99.90
20712;DHT22;10517;50.742;4.224;2023-03-20T00:34:37;6.50;99.90
20712;DHT22;10517;50.742;4.224;2023-03-20T00:37:03;6.50;99.90
20712;DHT22;10517;50.742;4.224;2023-03-20T00:39:29;6.60;99.90
20712;DHT22;10517;50.742;4.224;2023-03-20T00:42:03;6.60;99.90
20712;DHT22;10517;50.742;4.224;2023-03-20T00:44:35;6.70;99.90
20712;DHT22;10517;50.742;4.224;2023-03-20T00:47:21;6.80;99.90
20712;DHT22;10517;50.742;4.224;2023-03-20T00:49:49;6.90;99.90
20712;DHT22;10517;50.742;4.224;2023-03-20T00:52:17;6.90;99.90
20712;DHT22;10517;50.742;4.224;2023-03-20T00:54:43;7.00;99.90
20712;DHT22;10517;50.742;4.224;2023-03-20T00:57:20;7.00;99.90
20712;DHT22;10517;50.742;4.224;2023-03-20T01:00:00;7.10;99.90
20712;DHT22;10517;50.742;4.224;2023-03-20T01:02:28;7.10;99.90
20712;DHT22;10517;50.742;4.224;2023-03-20T01:04:54;7.20;99.90
20712;DHT22;10517;50.742;4.224;2023-03-20T01:07:20;7.20;99.90
20712;DHT22;10517;50.742;4.224;2023-03-20T01:09:46;7.10;99.90
20712;DHT22;10517;50.742;4.224;2023-03-20T01:12:12;7.00;99.90
20712;DHT22;10517;50.742;4.224;2023-03-20T01:14:39;7.00;99.90
20712;DHT22;10517;50.742;4.224;2023-03-20T01:17:04;6.90;99.90
20712;DHT22;10517;50.742;4.224;2023-03-20T01:19:30;6.80;99.90
20712;DHT22;10517;50.742;4.224;2023-03-20T01:21:56;6.90;99.90
20712;DHT22;10517;50.742;4.224;2023-03-20T01:24:21;6.80;99.90
20712;DHT22;10517;50.742;4.224;2023-03-20T01:26:47;6.90;99.90
20712;DHT22;10517;50.742;4.224;2023-03-20T01:29:24;7.00;99.90
20712;DHT22;10517;50.742;4.224;2023-03-20T01:31:51;7.00;99.90
20712;DHT22;10517;50.742;4.224;2023-03-20T01:34:17;7.00;99.90
20712;DHT22;10517;50.742;4.224;2023-03-20T01:36:51;7.00;99.90
20712;DHT22;10517;50.742;4.224;2023-03-20T01:39:19;7.00;99.90
20712;DHT22;10517;50.742;4.224;2023-03-20T01:41:47;7.10;99.90
20712;DHT22;10517;50.742;4.224;2023-03-20T01:44:25;7.10;99.90
20712;DHT22;10517;50.742;4.224;2023-03-20T01:46:52;7.20;99.90
20712;DHT22;10517;50.742;4.224;2023-03-20T01:51:44;7.30;99.90
20712;DHT22;10517;50.742;4.224;2023-03-20T01:54:16;7.30;99.90
20712;DHT22;10517;50.742;4.224;2023-03-20T01:56:49;7.40;99.90
20712;DHT22;10517;50.742;4.224;2023-03-20T01:59:21;7.30;99.90
20712;DHT22;10517;50.742;4.224;2023-03-20T02:01:48;7.30;99.90
20712;DHT22;10517;50.742;4.224;2023-03-20T02:04:14;7.30;99.90
20712;DHT22;10517;50.742;4.224;2023-03-20T02:06:41;7.30;99.90
20712;DHT22;10517;50.742;4.224;2023-03-20T02:09:10;7.30;99.90
20712;DHT22;10517;50.742;4.224;2023-03-20T02:11:36;7.30;99.90
20712;DHT22;10517;50.742;4.224;2023-03-20T02:14:03;7.40;99.90
20712;DHT22;10517;50.742;4.224;2023-03-20T02:16:29;7.40;99.90
20712;DHT22;10517;50.742;4.224;2023-03-20T02:18:56;7.30;99.90
20712;DHT22;10517;50.742;4.224;2023-03-20T02:21:44;7.20;99.90
20712;DHT22;10517;50.742;4.224;2023-03-20T02:24:33;7.30;99.90
20712;DHT22;10517;50.742;4.224;2023-03-20T02:27:24;7.30;99.90
20712;DHT22;10517;50.742;4.224;2023-03-20T02:33:27;7.20;99.90
20712;DHT22;10517;50.742;4.224;2023-03-20T02:47:55;7.00;99.90
20712;DHT22;10517;50.742;4.224;2023-03-20T02:50:46;6.90;99.90
20712;DHT22;10517;50.742;4.224;2023-03-20T02:55:46;6.80;99.90
20712;DHT22;10517;50.742;4.224;2023-03-20T02:58:27;6.70;99.90
20712;DHT22;10517;50.742;4.224;2023-03-20T03:01:16;6.60;99.90
20712;DHT22;10517;50.742;4.224;2023-03-20T03:03:49;6.60;99.90
20712;DHT22;10517;50.742;4.224;2023-03-20T03:08:46;6.70;99.90
20712;DHT22;10517;50.742;4.224;2023-03-20T03:11:13;6.80;99.90
20712;DHT22;10517;50.742;4.224;2023-03-20T03:13:46;6.80;99.90
20712;DHT22;10517;50.742;4.224;2023-03-20T03:16:29;6.90;99.90
20712;DHT22;10517;50.742;4.224;2023-03-20T03:19:02;6.90;99.90
20712;DHT22;10517;50.742;4.224;2023-03-20T03:21:31;6.90;99.90
20712;DHT22;10517;50.742;4.224;2023-03-20T03:23:58;6.90;99.90
20712;DHT22;10517;50.742;4.224;2023-03-20T03:26:27;6.80;99.90
20712;DHT22;10517;50.742;4.224;2023-03-20T03:28:58;6.80;99.90
20712;DHT22;10517;50.742;4.224;2023-03-20T03:31:26;6.80;99.90
20712;DHT22;10517;50.742;4.224;2023-03-20T03:33:55;6.60;99.90
20712;DHT22;10517;50.742;4.224;2023-03-20T03:39:40;6.40;99.90
20712;DHT22;10517;50.742;4.224;2023-03-20T03:42:34;6.40;99.90
20712;DHT22;10517;50.742;4.224;2023-03-20T03:47:55;6.30;99.90
20712;DHT22;10517;50.742;4.224;2023-03-20T03:50:34;6.30;99.90
20712;DHT22;10517;50.742;4.224;2023-03-20T03:53:05;6.40;99.90
20712;DHT22;10517;50.742;4.224;2023-03-20T03:55:39;6.40;99.90
20712;DHT22;10517;50.742;4.224;2023-03-20T03:58:10;6.50;99.90
20712;DHT22;10517;50.742;4.224;2023-03-20T04:00:40;6.50;99.90
20712;DHT22;10517;50.742;4.224;2023-03-20T04:03:06;6.60;99.90
20712;DHT22;10517;50.742;4.224;2023-03-20T04:05:35;6.60;99.90
20712;DHT22;10517;50.742;4.224;2023-03-20T04:08:05;6.60;99.90
20712;DHT22;10517;50.742;4.224;2023-03-20T04:10:32;6.50;99.90
20712;DHT22;10517;50.742;4.224;2023-03-20T04:12:57;6.50;99.90
20712;DHT22;10517;50.742;4.224;2023-03-20T04:15:23;6.60;99.90
20712;DHT22;10517;50.742;4.224;2023-03-20T04:17:48;6.60;99.90
20712;DHT22;10517;50.742;4.224;2023-03-20T04:20:14;6.60;99.90
20712;DHT22;10517;50.742;4.224;2023-03-20T04:22:40;6.70;99.90
20712;DHT22;10517;50.742;4.224;2023-03-20T04:25:08;6.70;99.90
20712;DHT22;10517;50.742;4.224;2023-03-20T04:27:34;6.70;99.90
20712;DHT22;10517;50.742;4.224;2023-03-20T04:30:00;6.70;99.90
20712;DHT22;10517;50.742;4.224;2023-03-20T04:32:26;6.60;99.90
20712;DHT22;10517;50.742;4.224;2023-03-20T04:34:52;6.60;99.90
20712;DHT22;10517;50.742;4.224;2023-03-20T04:37:18;6.60;99.90
20712;DHT22;10517;50.742;4.224;2023-03-20T04:39:43;6.60;99.90
20712;DHT22;10517;50.742;4.224;2023-03-20T04:42:09;6.70;99.90
20712;DHT22;10517;50.742;4.224;2023-03-20T04:44:35;6.70;99.90
20712;DHT22;10517;50.742;4.224;2023-03-20T04:47:00;6.80;99.90
20712;DHT22;10517;50.742;4.224;2023-03-20T04:49:26;6.80;99.90
20712;DHT22;10517;50.742;4.224;2023-03-20T04:51:53;6.90;99.90
20712;DHT22;10517;50.742;4.224;2023-03-20T04:54:19;6.80;99.90
20712;DHT22;10517;50.742;4.224;2023-03-20T04:56:44;6.80;99.90
20712;DHT22;10517;50.742;4.224;2023-03-20T04:59:10;6.80;99.90
20712;DHT22;10517;50.742;4.224;2023-03-20T05:01:36;6.70;99.90
20712;DHT22;10517;50.742;4.224;2023-03-20T05:04:01;6.80;99.90
20712;DHT22;10517;50.742;4.224;2023-03-20T05:06:28;6.70;99.90
20712;DHT22;10517;50.742;4.224;2023-03-20T05:08:53;6.80;99.90
20712;DHT22;10517;50.742;4.224;2023-03-20T05:11:19;6.80;99.90
20712;DHT22;10517;50.742;4.224;2023-03-20T05:13:45;6.80;99.90
20712;DHT22;10517;50.742;4.224;2023-03-20T05:16:11;6.80;99.90
20712;DHT22;10517;50.742;4.224;2023-03-20T05:18:36;6.90;99.90
20712;DHT22;10517;50.742;4.224;2023-03-20T05:21:02;6.90;99.90
20712;DHT22;10517;50.742;4.224;2023-03-20T05:23:28;6.90;99.90
20712;DHT22;10517;50.742;4.224;2023-03-20T05:25:54;6.90;99.90
20712;DHT22;10517;50.742;4.224;2023-03-20T05:28:19;6.90;99.90
20712;DHT22;10517;50.742;4.224;2023-03-20T05:30:45;6.90;99.90
20712;DHT22;10517;50.742;4.224;2023-03-20T05:33:11;6.80;99.90
20712;DHT22;10517;50.742;4.224;2023-03-20T05:35:36;6.90;99.90
20712;DHT22;10517;50.742;4.224;2023-03-20T05:38:02;6.70;99.90
20712;DHT22;10517;50.742;4.224;2023-03-20T05:40:27;6.80;99.90
20712;DHT22;10517;50.742;4.224;2023-03-20T05:42:53;6.80;99.90
20712;DHT22;10517;50.742;4.224;2023-03-20T05:45:18;6.80;99.90
20712;DHT22;10517;50.742;4.224;2023-03-20T05:47:44;6.80;99.90
20712;DHT22;10517;50.742;4.224;2023-03-20T05:50:10;6.80;99.90
20712;DHT22;10517;50.742;4.224;2023-03-20T05:52:36;6.90;99.90
20712;DHT22;10517;50.742;4.224;2023-03-20T05:55:02;6.90;99.90
20712;DHT22;10517;50.742;4.224;2023-03-20T05:57:28;6.90;99.90
20712;DHT22;10517;50.742;4.224;2023-03-20T05:59:53;6.80;99.90
20712;DHT22;10517;50.742;4.224;2023-03-20T06:02:19;6.80;99.90
20712;DHT22;10517;50.742;4.224;2023-03-20T06:04:45;6.80;99.90
20712;DHT22;10517;50.742;4.224;2023-03-20T06:07:11;6.80;99.90
20712;DHT22;10517;50.742;4.224;2023-03-20T06:09:36;6.80;99.90
20712;DHT22;10517;50.742;4.224;2023-03-20T06:12:02;7.00;99.90
20712;DHT22;10517;50.742;4.224;2023-03-20T06:14:28;7.10;99.90
20712;DHT22;10517;50.742;4.224;2023-03-20T06:16:53;7.20;99.90
20712;DHT22;10517;50.742;4.224;2023-03-20T06:19:20;7.30;99.90
20712;DHT22;10517;50.742;4.224;2023-03-20T06:21:46;7.20;99.90
20712;DHT22;10517;50.742;4.224;2023-03-20T06:24:12;7.40;99.90
20712;DHT22;10517;50.742;4.224;2023-03-20T06:26:38;7.40;99.90
20712;DHT22;10517;50.742;4.224;2023-03-20T06:29:03;7.40;99.90
20712;DHT22;10517;50.742;4.224;2023-03-20T06:31:29;7.50;99.90
20712;DHT22;10517;50.742;4.224;2023-03-20T06:33:55;7.40;99.90
20712;DHT22;10517;50.742;4.224;2023-03-20T06:36:21;7.50;99.90
20712;DHT22;10517;50.742;4.224;2023-03-20T06:38:46;7.50;99.90
20712;DHT22;10517;50.742;4.224;2023-03-20T06:41:12;7.40;99.90
20712;DHT22;10517;50.742;4.224;2023-03-20T06:43:38;7.50;99.90
20712;DHT22;10517;50.742;4.224;2023-03-20T06:46:04;7.50;99.90
20712;DHT22;10517;50.742;4.224;2023-03-20T06:48:30;7.50;99.90
20712;DHT22;10517;50.742;4.224;2023-03-20T06:50:56;7.50;99.90
20712;DHT22;10517;50.742;4.224;2023-03-20T06:53:21;7.50;99.90
20712;DHT22;10517;50.742;4.224;2023-03-20T06:55:48;7.60;99.90
20712;DHT22;10517;50.742;4.224;2023-03-20T06:58:14;7.50;99.90
20712;DHT22;10517;50.742;4.224;2023-03-20T07:00:41;7.60;99.90
20712;DHT22;10517;50.742;4.224;2023-03-20T07:03:06;7.60;99.90
20712;DHT22;10517;50.742;4.224;2023-03-20T07:05:32;7.60;99.90
20712;DHT22;10517;50.742;4.224;2023-03-20T07:07:58;7.70;99.90
20712;DHT22;10517;50.742;4.224;2023-03-20T07:10:24;7.60;99.90
20712;DHT22;10517;50.742;4.224;2023-03-20T07:12:50;7.60;99.90
20712;DHT22;10517;50.742;4.224;2023-03-20T07:15:16;7.70;99.90
20712;DHT22;10517;50.742;4.224;2023-03-20T07:17:42;7.60;99.90
20712;DHT22;10517;50.742;4.224;2023-03-20T07:20:08;7.70;99.90
20712;DHT22;10517;50.742;4.224;2023-03-20T07:22:34;7.80;99.90
20712;DHT22;10517;50.742;4.224;2023-03-20T07:25:00;7.90;99.90
20712;DHT22;10517;50.742;4.224;2023-03-20T07:27:26;7.90;99.90
20712;DHT22;10517;50.742;4.224;2023-03-20T07:29:52;8.00;99.90
20712;DHT22;10517;50.742;4.224;2023-03-20T07:32:17;8.10;99.90
20712;DHT22;10517;50.742;4.224;2023-03-20T07:34:43;8.10;99.90
20712;DHT22;10517;50.742;4.224;2023-03-20T07:37:09;8.20;99.90
20712;DHT22;10517;50.742;4.224;2023-03-20T07:39:35;8.20;99.90
20712;DHT22;10517;50.742;4.224;2023-03-20T07:42:01;8.20;99.90
20712;DHT22;10517;50.742;4.224;2023-03-20T07:44:26;8.20;99.90
20712;DHT22;10517;50.742;4.224;2023-03-20T07:46:52;8.20;99.90
20712;DHT22;10517;50.742;4.224;2023-03-20T07:49:18;8.20;99.90
20712;DHT22;10517;50.742;4.224;2023-03-20T07:51:45;8.30;99.90
20712;DHT22;10517;50.742;4.224;2023-03-20T07:54:11;8.50;99.90
20712;DHT22;10517;50.742;4.224;2023-03-20T07:56:36;8.60;99.90
20712;DHT22;10517;50.742;4.224;2023-03-20T07:59:02;8.60;99.90
20712;DHT22;10517;50.742;4.224;2023-03-20T08:01:28;8.80;99.90
20712;DHT22;10517;50.742;4.224;2023-03-20T08:03:53;8.70;99.90
20712;DHT22;10517;50.742;4.224;2023-03-20T08:06:19;8.80;99.90
20712;DHT22;10517;50.742;4.224;2023-03-20T08:08:45;8.80;99.90
20712;DHT22;10517;50.742;4.224;2023-03-20T08:11:11;8.90;99.90
20712;DHT22;10517;50.742;4.224;2023-03-20T08:13:37;9.00;99.90
20712;DHT22;10517;50.742;4.224;2023-03-20T08:16:03;8.80;99.90
20712;DHT22;10517;50.742;4.224;2023-03-20T08:18:29;8.90;99.90
20712;DHT22;10517;50.742;4.224;2023-03-20T08:20:54;8.80;99.90
20712;DHT22;10517;50.742;4.224;2023-03-20T08:23:21;8.90;99.90
20712;DHT22;10517;50.742;4.224;2023-03-20T08:25:51;8.90;99.90
20712;DHT22;10517;50.742;4.224;2023-03-20T08:28:17;9.10;99.90
20712;DHT22;10517;50.742;4.224;2023-03-20T08:30:43;9.10;99.90
20712;DHT22;10517;50.742;4.224;2023-03-20T08:33:09;9.10;99.90
20712;DHT22;10517;50.742;4.224;2023-03-20T08:35:35;9.20;99.90
20712;DHT22;10517;50.742;4.224;2023-03-20T08:38:01;9.20;99.90
20712;DHT22;10517;50.742;4.224;2023-03-20T08:40:27;9.30;99.90
20712;DHT22;10517;50.742;4.224;2023-03-20T08:42:52;9.50;99.90
20712;DHT22;10517;50.742;4.224;2023-03-20T08:45:18;9.60;99.90
20712;DHT22;10517;50.742;4.224;2023-03-20T08:47:46;9.70;99.90
20712;DHT22;10517;50.742;4.224;2023-03-20T08:50:13;9.70;99.90
20712;DHT22;10517;50.742;4.224;2023-03-20T08:52:38;9.60;99.90
20712;DHT22;10517;50.742;4.224;2023-03-20T08:55:12;9.80;99.90
20712;DHT22;10517;50.742;4.224;2023-03-20T08:57:38;9.70;99.90
20712;DHT22;10517;50.742;4.224;2023-03-20T09:00:05;9.70;99.90
20712;DHT22;10517;50.742;4.224;2023-03-20T09:02:32;9.70;99.90
20712;DHT22;10517;50.742;4.224;2023-03-20T09:04:57;9.70;99.90
20712;DHT22;10517;50.742;4.224;2023-03-20T09:07:23;9.70;99.90
20712;DHT22;10517;50.742;4.224;2023-03-20T09:09:48;9.60;99.90
20712;DHT22;10517;50.742;4.224;2023-03-20T09:12:14;9.70;99.90
20712;DHT22;10517;50.742;4.224;2023-03-20T09:14:40;9.70;99.90
20712;DHT22;10517;50.742;4.224;2023-03-20T09:17:06;9.80;99.90
20712;DHT22;10517;50.742;4.224;2023-03-20T09:19:32;9.80;99.90
20712;DHT22;10517;50.742;4.224;2023-03-20T09:21:57;9.90;99.90
20712;DHT22;10517;50.742;4.224;2023-03-20T09:24:23;9.90;99.90
20712;DHT22;10517;50.742;4.224;2023-03-20T09:26:49;9.90;99.90
20712;DHT22;10517;50.742;4.224;2023-03-20T09:29:14;10.00;99.90
20712;DHT22;10517;50.742;4.224;2023-03-20T09:31:40;10.10;99.90
20712;DHT22;10517;50.742;4.224;2023-03-20T09:34:06;10.20;99.90
20712;DHT22;10517;50.742;4.224;2023-03-20T09:36:32;10.30;99.90
20712;DHT22;10517;50.742;4.224;2023-03-20T09:38:58;10.40;99.90
20712;DHT22;10517;50.742;4.224;2023-03-20T09:41:24;10.50;99.90
20712;DHT22;10517;50.742;4.224;2023-03-20T09:52:03;11.50;99.90
20712;DHT22;10517;50.742;4.224;2023-03-20T09:54:40;11.70;99.90
20712;DHT22;10517;50.742;4.224;2023-03-20T09:59:47;12.10;99.90
20712;DHT22;10517;50.742;4.224;2023-03-20T10:02:16;12.20;99.90
20712;DHT22;10517;50.742;4.224;2023-03-20T10:04:52;12.20;99.90
20712;DHT22;10517;50.742;4.224;2023-03-20T10:07:19;12.00;99.90
20712;DHT22;10517;50.742;4.224;2023-03-20T10:09:45;12.20;99.90
20712;DHT22;10517;50.742;4.224;2023-03-20T10:18:10;12.30;99.90
20712;DHT22;10517;50.742;4.224;2023-03-20T10:20:42;12.30;99.90
20712;DHT22;10517;50.742;4.224;2023-03-20T10:23:17;12.30;99.90
20712;DHT22;10517;50.742;4.224;2023-03-20T10:25:50;12.30;99.90
20712;DHT22;10517;50.742;4.224;2023-03-20T10:28:21;12.50;99.90
20712;DHT22;10517;50.742;4.224;2023-03-20T10:33:51;13.10;99.90
20712;DHT22;10517;50.742;4.224;2023-03-20T10:41:35;13.50;99.90
20712;DHT22;10517;50.742;4.224;2023-03-20T10:44:04;13.50;99.90
20712;DHT22;10517;50.742;4.224;2023-03-20T10:46:40;13.50;99.90
20712;DHT22;10517;50.742;4.224;2023-03-20T10:51:53;13.60;99.90
20712;DHT22;10517;50.742;4.224;2023-03-20T10:56:53;13.50;99.90
20712;DHT22;10517;50.742;4.224;2023-03-20T10:59:31;13.40;99.90
20712;DHT22;10517;50.742;4.224;2023-03-20T11:01:58;13.30;99.90
20712;DHT22;10517;50.742;4.224;2023-03-20T11:04:24;13.20;99.90
20712;DHT22;10517;50.742;4.224;2023-03-20T11:09:40;13.20;99.90
20712;DHT22;10517;50.742;4.224;2023-03-20T11:12:16;13.20;99.90
20712;DHT22;10517;50.742;4.224;2023-03-20T11:14:44;13.00;99.90
20712;DHT22;10517;50.742;4.224;2023-03-20T11:17:11;12.80;99.90
20712;DHT22;10517;50.742;4.224;2023-03-20T11:19:38;12.80;99.90
20712;DHT22;10517;50.742;4.224;2023-03-20T11:22:27;12.90;99.90
20712;DHT22;10517;50.742;4.224;2023-03-20T11:24:56;13.00;99.90
20712;DHT22;10517;50.742;4.224;2023-03-20T11:27:30;13.20;99.90
20712;DHT22;10517;50.742;4.224;2023-03-20T11:29:58;13.40;99.90
20712;DHT22;10517;50.742;4.224;2023-03-20T11:34:53;13.60;99.90
20712;DHT22;10517;50.742;4.224;2023-03-20T11:37:28;13.70;99.90
20712;DHT22;10517;50.742;4.224;2023-03-20T11:42:38;13.70;99.90
20712;DHT22;10517;50.742;4.224;2023-03-20T11:45:16;13.60;99.90
20712;DHT22;10517;50.742;4.224;2023-03-20T11:47:42;13.80;99.90
20712;DHT22;10517;50.742;4.224;2023-03-20T11:50:42;14.10;99.90
20712;DHT22;10517;50.742;4.224;2023-03-20T11:53:23;14.30;99.90
20712;DHT22;10517;50.742;4.224;2023-03-20T11:58:35;14.40;99.90
20712;DHT22;10517;50.742;4.224;2023-03-20T12:01:02;14.40;99.90
20712;DHT22;10517;50.742;4.224;2023-03-20T12:03:50;14.30;99.90
20712;DHT22;10517;50.742;4.224;2023-03-20T12:06:24;14.00;99.90
20712;DHT22;10517;50.742;4.224;2023-03-20T12:09:00;13.80;99.90
20712;DHT22;10517;50.742;4.224;2023-03-20T12:11:57;13.60;99.90
20712;DHT22;10517;50.742;4.224;2023-03-20T12:15:16;13.50;99.90
20712;DHT22;10517;50.742;4.224;2023-03-20T12:17:28;13.60;99.90
20712;DHT22;10517;50.742;4.224;2023-03-20T12:19:58;13.90;99.90
20712;DHT22;10517;50.742;4.224;2023-03-20T12:22:34;14.30;99.90
20712;DHT22;10517;50.742;4.224;2023-03-20T12:25:19;14.80;99.90
20712;DHT22;10517;50.742;4.224;2023-03-20T12:27:54;15.00;99.90
20712;DHT22;10517;50.742;4.224;2023-03-20T12:36:03;14.90;99.90
20712;DHT22;10517;50.742;4.224;2023-03-20T12:38:34;14.60;99.90
20712;DHT22;10517;50.742;4.224;2023-03-20T12:46:33;14.10;99.90
20712;DHT22;10517;50.742;4.224;2023-03-20T12:54:39;15.30;99.90
20712;DHT22;10517;50.742;4.224;2023-03-20T12:57:17;15.70;99.90
20712;DHT22;10517;50.742;4.224;2023-03-20T13:13:57;15.30;99.90
20712;DHT22;10517;50.742;4.224;2023-03-20T13:21:46;14.70;99.90
20712;DHT22;10517;50.742;4.224;2023-03-20T13:32:43;14.50;99.90
20712;DHT22;10517;50.742;4.224;2023-03-20T13:37:55;14.20;99.90
20712;DHT22;10517;50.742;4.224;2023-03-20T13:40:36;14.30;99.90
20712;DHT22;10517;50.742;4.224;2023-03-20T13:45:42;14.50;99.90
20712;DHT22;10517;50.742;4.224;2023-03-20T13:48:31;14.40;99.90
20712;DHT22;10517;50.742;4.224;2023-03-20T13:59:54;14.50;99.90
20712;DHT22;10517;50.742;4.224;2023-03-20T14:02:26;14.70;99.90
20712;DHT22;10517;50.742;4.224;2023-03-20T14:05:17;14.70;99.90
20712;DHT22;10517;50.742;4.224;2023-03-20T14:07:45;14.80;99.90
20712;DHT22;10517;50.742;4.224;2023-03-20T14:12:56;14.90;99.90
20712;DHT22;10517;50.742;4.224;2023-03-20T14:15:31;14.80;99.90
20712;DHT22;10517;50.742;4.224;2023-03-20T14:18:02;14.70;99.90
20712;DHT22;10517;50.742;4.224;2023-03-20T14:20:37;14.60;99.90
20712;DHT22;10517;50.742;4.224;2023-03-20T14:23:04;14.30;99.90
20712;DHT22;10517;50.742;4.224;2023-03-20T14:25:36;14.10;99.90
20712;DHT22;10517;50.742;4.224;2023-03-20T14:28:28;14.00;99.90
20712;DHT22;10517;50.742;4.224;2023-03-20T14:36:30;13.70;99.90
20712;DHT22;10517;50.742;4.224;2023-03-20T14:39:17;13.70;99.90
20712;DHT22;10517;50.742;4.224;2023-03-20T14:44:21;13.80;99.90
20712;DHT22;10517;50.742;4.224;2023-03-20T14:46:59;13.80;99.90
20712;DHT22;10517;50.742;4.224;2023-03-20T14:54:53;13.60;99.90
20712;DHT22;10517;50.742;4.224;2023-03-20T14:57:33;13.60;99.90
20712;DHT22;10517;50.742;4.224;2023-03-20T14:59:59;13.70;99.90
20712;DHT22;10517;50.742;4.224;2023-03-20T15:02:33;13.80;99.90
20712;DHT22;10517;50.742;4.224;2023-03-20T15:05:00;13.80;99.90
20712;DHT22;10517;50.742;4.224;2023-03-20T15:07:28;13.90;99.90
20712;DHT22;10517;50.742;4.224;2023-03-20T15:09:58;14.00;99.90
20712;DHT22;10517;50.742;4.224;2023-03-20T15:12:26;13.90;99.90
20712;DHT22;10517;50.742;4.224;2023-03-20T15:14:59;14.00;99.90
20712;DHT22;10517;50.742;4.224;2023-03-20T15:17:40;14.30;99.90
20712;DHT22;10517;50.742;4.224;2023-03-20T15:20:25;14.40;99.90
20712;DHT22;10517;50.742;4.224;2023-03-20T15:23:00;14.60;99.90
20712;DHT22;10517;50.742;4.224;2023-03-20T15:25:38;14.70;99.90
20712;DHT22;10517;50.742;4.224;2023-03-20T15:28:06;14.70;99.90
20712;DHT22;10517;50.742;4.224;2023-03-20T15:30:35;14.60;99.90
20712;DHT22;10517;50.742;4.224;2023-03-20T15:33:01;14.50;99.90
20712;DHT22;10517;50.742;4.224;2023-03-20T15:35:27;14.30;99.90
20712;DHT22;10517;50.742;4.224;2023-03-20T15:37:55;14.30;99.90
20712;DHT22;10517;50.742;4.224;2023-03-20T15:40:28;14.30;99.90
20712;DHT22;10517;50.742;4.224;2023-03-20T15:42:59;14.40;99.90
20712;DHT22;10517;50.742;4.224;2023-03-20T15:45:29;14.40;99.90
20712;DHT22;10517;50.742;4.224;2023-03-20T15:48:17;14.30;99.90
20712;DHT22;10517;50.742;4.224;2023-03-20T15:50:54;14.20;99.90
20712;DHT22;10517;50.742;4.224;2023-03-20T15:53:34;14.10;99.90
20712;DHT22;10517;50.742;4.224;2023-03-20T15:56:04;13.90;99.90
20712;DHT22;10517;50.742;4.224;2023-03-20T15:58:31;13.80;99.90
20712;DHT22;10517;50.742;4.224;2023-03-20T16:00:58;13.80;99.90
20712;DHT22;10517;50.742;4.224;2023-03-20T16:03:25;13.80;99.90
20712;DHT22;10517;50.742;4.224;2023-03-20T16:05:52;13.70;99.90
20712;DHT22;10517;50.742;4.224;2023-03-20T16:08:27;13.70;99.90
20712;DHT22;10517;50.742;4.224;2023-03-20T16:10:55;13.70;99.90
20712;DHT22;10517;50.742;4.224;2023-03-20T16:13:21;13.80;99.90
20712;DHT22;10517;50.742;4.224;2023-03-20T16:15:49;13.80;99.90
20712;DHT22;10517;50.742;4.224;2023-03-20T16:18:15;13.80;99.90
20712;DHT22;10517;50.742;4.224;2023-03-20T16:20:55;13.80;99.90
20712;DHT22;10517;50.742;4.224;2023-03-20T16:23:38;14.00;99.90
20712;DHT22;10517;50.742;4.224;2023-03-20T16:26:06;14.10;99.90
20712;DHT22;10517;50.742;4.224;2023-03-20T16:28:35;14.00;99.90
20712;DHT22;10517;50.742;4.224;2023-03-20T16:31:09;13.90;99.90
20712;DHT22;10517;50.742;4.224;2023-03-20T16:33:38;13.80;99.90
20712;DHT22;10517;50.742;4.224;2023-03-20T16:36:04;13.70;99.90
20712;DHT22;10517;50.742;4.224;2023-03-20T16:38:35;13.50;99.90
20712;DHT22;10517;50.742;4.224;2023-03-20T16:41:20;13.30;99.90
20712;DHT22;10517;50.742;4.224;2023-03-20T16:43:50;13.30;99.90
20712;DHT22;10517;50.742;4.224;2023-03-20T16:46:20;13.40;99.90
20712;DHT22;10517;50.742;4.224;2023-03-20T16:49:01;13.40;99.90
20712;DHT22;10517;50.742;4.224;2023-03-20T16:51:32;13.40;99.90
20712;DHT22;10517;50.742;4.224;2023-03-20T16:53:59;13.40;99.90
20712;DHT22;10517;50.742;4.224;2023-03-20T16:56:36;13.30;99.90
20712;DHT22;10517;50.742;4.224;2023-03-20T16:59:07;13.30;99.90
20712;DHT22;10517;50.742;4.224;2023-03-20T17:01:33;13.30;99.90
20712;DHT22;10517;50.742;4.224;2023-03-20T17:04:31;13.10;99.90
20712;DHT22;10517;50.742;4.224;2023-03-20T17:06:59;13.10;99.90
20712;DHT22;10517;50.742;4.224;2023-03-20T17:09:29;13.10;99.90
20712;DHT22;10517;50.742;4.224;2023-03-20T17:14:30;13.30;99.90
20712;DHT22;10517;50.742;4.224;2023-03-20T17:16:56;13.30;99.90
20712;DHT22;10517;50.742;4.224;2023-03-20T17:19:22;13.30;99.90
20712;DHT22;10517;50.742;4.224;2023-03-20T17:21:48;13.20;99.90
20712;DHT22;10517;50.742;4.224;2023-03-20T17:24:15;13.20;99.90
20712;DHT22;10517;50.742;4.224;2023-03-20T17:26:50;13.00;99.90
20712;DHT22;10517;50.742;4.224;2023-03-20T17:29:16;13.00;99.90
20712;DHT22;10517;50.742;4.224;2023-03-20T17:31:42;13.00;99.90
20712;DHT22;10517;50.742;4.224;2023-03-20T17:34:12;13.00;99.90
20712;DHT22;10517;50.742;4.224;2023-03-20T17:36:39;12.80;99.90
20712;DHT22;10517;50.742;4.224;2023-03-20T17:39:05;12.80;99.90
20712;DHT22;10517;50.742;4.224;2023-03-20T17:41:31;12.80;99.90
20712;DHT22;10517;50.742;4.224;2023-03-20T17:43:56;12.70;99.90
20712;DHT22;10517;50.742;4.224;2023-03-20T17:46:26;12.70;99.90
20712;DHT22;10517;50.742;4.224;2023-03-20T17:48:57;12.80;99.90
20712;DHT22;10517;50.742;4.224;2023-03-20T17:51:23;12.60;99.90
20712;DHT22;10517;50.742;4.224;2023-03-20T17:53:48;12.50;99.90
20712;DHT22;10517;50.742;4.224;2023-03-20T17:56:20;12.50;99.90
20712;DHT22;10517;50.742;4.224;2023-03-20T17:58:46;12.50;99.90
20712;DHT22;10517;50.742;4.224;2023-03-20T18:01:12;12.50;99.90
20712;DHT22;10517;50.742;4.224;2023-03-20T18:03:38;12.50;99.90
20712;DHT22;10517;50.742;4.224;2023-03-20T18:06:04;12.50;99.90
20712;DHT22;10517;50.742;4.224;2023-03-20T18:08:30;12.50;99.90
20712;DHT22;10517;50.742;4.224;2023-03-20T18:10:56;12.40;99.90
20712;DHT22;10517;50.742;4.224;2023-03-20T18:13:24;12.40;99.90
20712;DHT22;10517;50.742;4.224;2023-03-20T18:15:51;12.30;99.90
20712;DHT22;10517;50.742;4.224;2023-03-20T18:18:18;12.30;99.90
20712;DHT22;10517;50.742;4.224;2023-03-20T18:20:44;12.20;99.90